Time;durP1;ratioP1;P1;durP2;ratioP2;P2;SDS_P1;SDS_P2;PMS_P1;PMS_P2;Temp;Humidity;BMP_temperature;BMP_pressure;BME280_temperature;BME280_humidity;BME280_pressure;Samples;Min_cycle;Max_cycle;Signal;HPM_P1;HPM_P2
2023/12/22 00:00:47;;;;;;;1.33;0.87;;;6.50;99.90;;;;;;5054879;28;20270;-77
2023/12/22 00:03:13;;;;;;;8.43;1.57;;;6.40;99.90;;;;;;5074110;28;20247;-78
2023/12/22 00:05:39;;;;;;;1.43;1.00;;;6.40;99.90;;;;;;5076192;28;20408;-76
2023/12/22 00:08:05;;;;;;;1.10;1.00;;;6.30;99.90;;;;;;5074160;28;20569;-77
2023/12/22 00:10:30;;;;;;;3.73;1.10;;;6.20;99.90;;;;;;5075440;28;20171;-77
2023/12/22 00:12:56;;;;;;;3.60;1.03;;;6.20;99.90;;;;;;5074542;28;20447;-77
2023/12/22 00:15:21;;;;;;;4.13;0.90;;;6.20;99.90;;;;;;5075719;28;20217;-77
2023/12/22 00:17:47;;;;;;;2.30;0.80;;;6.20;99.90;;;;;;5075361;28;20181;-76
2023/12/22 00:20:14;;;;;;;5.17;1.27;;;6.20;99.90;;;;;;5073707;28;20162;-76
2023/12/22 00:22:40;;;;;;;3.33;0.90;;;6.10;99.90;;;;;;5073215;28;20490;-77
2023/12/22 00:25:07;;;;;;;3.50;0.90;;;6.10;99.90;;;;;;5076320;28;20420;-76
2023/12/22 00:27:33;;;;;;;2.40;1.03;;;6.20;99.90;;;;;;5075674;28;20162;-76
2023/12/22 00:29:58;;;;;;;2.90;1.30;;;6.30;99.90;;;;;;5075436;28;20459;-77
2023/12/22 00:32:24;;;;;;;1.43;1.10;;;6.30;99.90;;;;;;5075839;28;20205;-78
2023/12/22 00:34:50;;;;;;;3.03;0.80;;;6.40;99.90;;;;;;5074203;28;20198;-77
2023/12/22 00:37:16;;;;;;;1.53;0.90;;;6.40;99.90;;;;;;5074354;28;20510;-77
2023/12/22 00:39:41;;;;;;;1.17;0.90;;;6.50;99.90;;;;;;5074604;28;20257;-75
2023/12/22 00:42:07;;;;;;;3.20;0.87;;;6.50;99.90;;;;;;5073959;28;20197;-78
2023/12/22 00:44:32;;;;;;;6.20;1.40;;;6.60;99.90;;;;;;5074047;28;20264;-77
2023/12/22 00:46:58;;;;;;;5.90;1.10;;;6.60;99.90;;;;;;5073979;28;20525;-77
2023/12/22 00:49:23;;;;;;;12.93;1.83;;;6.70;99.90;;;;;;5074377;28;20174;-75
2023/12/22 00:51:49;;;;;;;2.83;1.10;;;6.70;99.90;;;;;;5075040;28;20265;-78
2023/12/22 00:54:14;;;;;;;2.10;1.10;;;6.80;99.90;;;;;;5075432;28;20680;-77
2023/12/22 00:56:40;;;;;;;3.13;0.80;;;6.80;99.90;;;;;;5074122;28;20191;-77
2023/12/22 00:59:05;;;;;;;8.10;3.37;;;6.80;99.90;;;;;;5073638;28;20253;-75
2023/12/22 01:01:31;;;;;;;1.47;0.90;;;6.80;99.90;;;;;;5073209;28;20197;-77
2023/12/22 01:03:57;;;;;;;3.83;1.13;;;6.80;99.90;;;;;;5074649;28;20198;-78
2023/12/22 01:06:22;;;;;;;4.40;1.37;;;6.80;99.90;;;;;;5075526;28;20432;-78
2023/12/22 01:08:49;;;;;;;1.90;1.07;;;6.90;99.90;;;;;;5075294;28;20180;-77
2023/12/22 01:11:16;;;;;;;5.13;1.23;;;6.90;99.90;;;;;;5076017;28;20247;-76
2023/12/22 01:13:42;;;;;;;8.10;1.50;;;6.90;99.90;;;;;;5075936;28;20443;-76
2023/12/22 01:16:08;;;;;;;1.10;0.80;;;7.00;99.90;;;;;;5074338;28;20442;-76
2023/12/22 01:18:33;;;;;;;5.80;1.50;;;7.00;99.90;;;;;;5075826;28;20401;-77
2023/12/22 01:20:59;;;;;;;5.07;1.50;;;7.10;99.90;;;;;;5075208;28;20158;-78
2023/12/22 01:23:25;;;;;;;10.63;1.27;;;7.10;99.90;;;;;;5074292;28;20189;-77
2023/12/22 01:25:51;;;;;;;3.50;1.30;;;7.10;99.90;;;;;;5075641;28;20169;-77
2023/12/22 01:28:16;;;;;;;5.80;1.30;;;7.10;99.90;;;;;;5074364;28;20223;-76
2023/12/22 01:30:42;;;;;;;7.60;1.43;;;7.20;99.90;;;;;;5075552;28;20676;-76
2023/12/22 01:33:08;;;;;;;7.43;2.07;;;7.20;99.90;;;;;;5074914;28;20420;-78
2023/12/22 01:35:33;;;;;;;5.93;1.23;;;7.20;99.90;;;;;;5075743;28;20170;-77
2023/12/22 01:37:59;;;;;;;9.33;1.50;;;7.20;99.90;;;;;;5075696;28;20162;-78
2023/12/22 01:40:24;;;;;;;8.83;1.60;;;7.20;99.90;;;;;;5074890;28;20186;-76
2023/12/22 01:42:50;;;;;;;3.73;1.80;;;7.20;99.90;;;;;;5075273;28;20688;-77
2023/12/22 01:45:16;;;;;;;5.43;1.30;;;7.30;99.90;;;;;;5075317;28;20173;-78
2023/12/22 01:47:42;;;;;;;4.90;1.67;;;7.30;99.90;;;;;;5074620;28;20166;-77
2023/12/22 01:50:10;;;;;;;2.33;1.10;;;7.30;99.90;;;;;;5074685;28;20253;-78
2023/12/22 01:52:37;;;;;;;1.50;1.07;;;7.30;99.90;;;;;;5074501;28;20470;-77
2023/12/22 01:55:06;;;;;;;5.20;2.03;;;7.30;99.90;;;;;;5073629;28;20484;-77
2023/12/22 01:57:31;;;;;;;6.10;1.70;;;7.30;99.90;;;;;;5073472;28;20931;-78
2023/12/22 01:59:57;;;;;;;5.13;1.70;;;7.10;99.90;;;;;;5074782;28;20412;-77
2023/12/22 02:02:23;;;;;;;8.47;1.37;;;7.00;99.90;;;;;;5074910;28;20232;-77
2023/12/22 02:04:49;;;;;;;2.53;1.13;;;7.00;99.90;;;;;;5074688;28;20400;-77
2023/12/22 02:07:15;;;;;;;4.23;1.40;;;7.00;99.90;;;;;;5074567;28;20247;-76
2023/12/22 02:09:41;;;;;;;10.03;2.50;;;6.90;99.90;;;;;;5074534;28;20409;-76
2023/12/22 02:12:06;;;;;;;4.60;1.30;;;6.90;99.90;;;;;;5072898;28;20431;-77
2023/12/22 02:14:32;;;;;;;4.13;2.00;;;6.80;99.90;;;;;;5073107;28;20201;-78
2023/12/22 02:17:21;;;;;;;11.90;1.53;;;6.70;99.90;;;;;;5074291;28;20176;-78
2023/12/22 02:19:48;;;;;;;6.93;1.97;;;6.70;99.90;;;;;;5073673;28;20664;-77
2023/12/22 02:22:13;;;;;;;7.13;1.67;;;6.70;99.90;;;;;;5074048;28;20478;-77
2023/12/22 02:24:41;;;;;;;10.70;1.90;;;6.70;99.90;;;;;;5072796;28;20927;-77
2023/12/22 02:27:33;;;;;;;7.70;1.83;;;6.70;99.90;;;;;;5073107;28;20177;-77
2023/12/22 02:30:26;;;;;;;2.90;1.30;;;6.80;99.90;;;;;;5074449;28;20412;-78
2023/12/22 02:32:58;;;;;;;6.10;1.33;;;6.80;99.90;;;;;;5072395;28;20909;-77
2023/12/22 02:35:26;;;;;;;6.13;1.70;;;6.90;99.90;;;;;;5073892;28;20822;-77
2023/12/22 02:37:52;;;;;;;6.27;2.40;;;7.00;99.90;;;;;;5073295;28;20413;-78
2023/12/22 02:40:20;;;;;;;7.03;2.37;;;6.90;99.90;;;;;;5075065;28;20408;-78
2023/12/22 02:42:46;;;;;;;6.73;1.93;;;7.00;99.90;;;;;;5073891;28;20799;-76
2023/12/22 02:45:16;;;;;;;9.43;2.60;;;7.00;99.90;;;;;;5075418;28;20491;-76
2023/12/22 02:47:42;;;;;;;16.20;2.10;;;7.00;99.90;;;;;;5077323;28;20416;-78
2023/12/22 02:50:08;;;;;;;6.70;1.90;;;6.90;99.90;;;;;;5078631;28;20407;-77
2023/12/22 02:52:35;;;;;;;6.10;2.10;;;7.00;99.90;;;;;;5076785;28;20235;-77
2023/12/22 02:55:03;;;;;;;4.93;1.70;;;7.00;99.90;;;;;;5077226;28;20448;-78
2023/12/22 02:57:29;;;;;;;10.47;2.20;;;7.00;99.90;;;;;;5077325;28;20415;-78
2023/12/22 02:59:55;;;;;;;4.37;1.43;;;7.00;99.90;;;;;;5077293;28;20420;-78
2023/12/22 03:02:21;;;;;;;4.00;1.77;;;7.00;99.90;;;;;;5077014;28;20228;-76
2023/12/22 03:04:46;;;;;;;18.70;2.13;;;7.00;99.90;;;;;;5077247;28;20412;-77
2023/12/22 03:07:12;;;;;;;12.13;1.67;;;6.90;99.90;;;;;;5078169;28;20575;-77
2023/12/22 03:09:38;;;;;;;5.53;2.07;;;6.90;99.90;;;;;;5078478;28;20253;-77
2023/12/22 03:12:04;;;;;;;2.73;1.63;;;6.90;99.90;;;;;;5078114;28;20443;-77
2023/12/22 03:14:32;;;;;;;3.90;1.50;;;7.00;99.90;;;;;;5077017;28;20531;-76
2023/12/22 03:16:59;;;;;;;8.90;2.20;;;7.00;99.90;;;;;;5078371;28;20533;-78
2023/12/22 03:19:24;;;;;;;4.67;1.20;;;7.00;99.90;;;;;;5078479;28;20407;-77
2023/12/22 03:21:50;;;;;;;8.63;1.93;;;7.00;99.90;;;;;;5076503;28;20436;-78
2023/12/22 03:24:15;;;;;;;3.90;2.07;;;7.10;99.90;;;;;;5078338;28;20170;-78
2023/12/22 03:26:41;;;;;;;4.50;1.83;;;7.20;99.90;;;;;;5077772;28;20163;-77
2023/12/22 03:29:06;;;;;;;9.33;1.90;;;7.30;99.90;;;;;;5077706;28;20173;-78
2023/12/22 03:31:32;;;;;;;8.30;1.87;;;7.40;99.90;;;;;;5077404;28;20195;-78
2023/12/22 03:33:57;;;;;;;7.90;2.73;;;7.50;99.90;;;;;;5076281;28;20198;-78
2023/12/22 03:36:23;;;;;;;6.07;2.40;;;7.50;99.90;;;;;;5077876;28;20162;-78
2023/12/22 03:38:48;;;;;;;12.90;1.83;;;7.60;99.90;;;;;;5077065;28;20166;-76
2023/12/22 03:41:14;;;;;;;12.97;2.10;;;7.60;99.90;;;;;;5076859;28;20190;-78
2023/12/22 03:43:39;;;;;;;7.40;1.83;;;7.70;99.90;;;;;;5075855;28;20182;-78
2023/12/22 03:46:05;;;;;;;10.17;2.30;;;7.70;99.90;;;;;;5076649;28;20178;-77
2023/12/22 03:48:30;;;;;;;8.73;1.53;;;7.70;99.90;;;;;;5076837;28;20166;-75
2023/12/22 03:50:56;;;;;;;9.70;3.10;;;7.70;99.90;;;;;;5076599;28;20197;-78
2023/12/22 03:53:21;;;;;;;2.27;1.40;;;7.80;99.90;;;;;;5075105;28;20660;-78
2023/12/22 03:55:47;;;;;;;4.10;1.27;;;7.80;99.90;;;;;;5075525;28;20166;-77
2023/12/22 03:58:12;;;;;;;9.90;2.97;;;7.80;99.90;;;;;;5075188;28;20169;-78
2023/12/22 04:00:38;;;;;;;5.53;1.60;;;7.80;99.90;;;;;;5076075;28;20169;-78
2023/12/22 04:03:04;;;;;;;3.53;1.63;;;7.80;99.90;;;;;;5074932;28;20281;-78
2023/12/22 04:05:29;;;;;;;3.90;1.70;;;7.80;99.90;;;;;;5075966;28;20170;-77
2023/12/22 04:07:55;;;;;;;6.03;1.80;;;7.80;99.90;;;;;;5074530;28;20181;-77
2023/12/22 04:10:20;;;;;;;6.33;1.47;;;7.80;99.90;;;;;;5075586;28;20169;-78
2023/12/22 04:12:46;;;;;;;4.47;1.80;;;7.70;99.90;;;;;;5077402;28;20904;-78
2023/12/22 04:15:12;;;;;;;13.20;2.40;;;7.70;99.90;;;;;;5076657;28;20189;-78
2023/12/22 04:17:38;;;;;;;4.97;1.33;;;7.70;99.90;;;;;;5076258;28;20168;-78
2023/12/22 04:20:05;;;;;;;9.93;2.17;;;7.60;99.90;;;;;;5075890;28;20404;-78
2023/12/22 04:22:31;;;;;;;4.00;1.40;;;7.60;99.90;;;;;;5077117;28;20239;-76
2023/12/22 04:24:56;;;;;;;3.47;1.60;;;7.50;99.90;;;;;;5076119;28;20409;-78
2023/12/22 04:27:22;;;;;;;12.20;1.80;;;7.50;99.90;;;;;;5076063;28;20192;-78
2023/12/22 04:29:47;;;;;;;14.70;2.30;;;7.50;99.90;;;;;;5075757;28;20186;-77
2023/12/22 04:32:13;;;;;;;6.10;2.17;;;7.40;99.90;;;;;;5077209;28;20695;-76
2023/12/22 04:34:38;;;;;;;4.97;1.50;;;7.40;99.90;;;;;;5076146;28;20202;-78
2023/12/22 04:37:04;;;;;;;3.70;1.23;;;7.40;99.90;;;;;;5075936;28;20238;-78
2023/12/22 04:39:29;;;;;;;7.30;2.33;;;7.40;99.90;;;;;;5077295;28;20172;-76
2023/12/22 04:41:55;;;;;;;5.30;1.43;;;7.50;99.90;;;;;;5076385;28;20661;-78
2023/12/22 04:44:20;;;;;;;4.20;1.13;;;7.50;99.90;;;;;;5075457;28;20220;-78
2023/12/22 04:46:46;;;;;;;6.17;1.83;;;7.40;99.90;;;;;;5076381;28;20158;-77
2023/12/22 04:49:12;;;;;;;4.00;1.77;;;7.30;99.90;;;;;;5076661;28;20205;-76
2023/12/22 04:51:37;;;;;;;16.07;2.07;;;7.30;99.90;;;;;;5075970;28;20221;-78
2023/12/22 04:54:03;;;;;;;4.00;2.20;;;7.30;99.90;;;;;;5074981;28;20206;-78
2023/12/22 04:56:28;;;;;;;7.20;2.03;;;7.40;99.90;;;;;;5076015;28;20166;-78
2023/12/22 04:58:54;;;;;;;3.47;1.40;;;7.40;99.90;;;;;;5076344;28;20166;-76
2023/12/22 05:01:20;;;;;;;2.70;1.80;;;7.50;99.90;;;;;;5074874;28;20205;-78
2023/12/22 05:03:46;;;;;;;10.20;1.90;;;7.50;99.90;;;;;;5074784;28;20220;-78
2023/12/22 05:06:12;;;;;;;12.50;1.90;;;7.50;99.90;;;;;;5074885;28;20424;-78
2023/12/22 05:08:37;;;;;;;3.40;1.93;;;7.60;99.90;;;;;;5075046;28;20201;-78
2023/12/22 05:11:03;;;;;;;10.77;3.00;;;7.60;99.90;;;;;;5075343;28;20176;-78
2023/12/22 05:13:28;;;;;;;5.53;2.03;;;7.70;99.90;;;;;;5074355;28;20169;-77
2023/12/22 05:15:54;;;;;;;6.30;1.67;;;7.80;99.90;;;;;;5075548;28;20170;-76
2023/12/22 05:18:20;;;;;;;8.83;1.57;;;7.80;99.90;;;;;;5074190;28;20177;-77
2023/12/22 05:20:46;;;;;;;3.23;1.80;;;7.90;99.90;;;;;;5074841;28;20397;-78
2023/12/22 05:23:11;;;;;;;7.73;2.43;;;7.90;99.90;;;;;;5073945;28;20846;-78
2023/12/22 05:25:37;;;;;;;4.47;1.70;;;7.90;99.90;;;;;;5075105;28;20325;-78
2023/12/22 05:28:02;;;;;;;4.30;1.63;;;8.00;99.90;;;;;;5073582;28;20178;-76
2023/12/22 05:30:28;;;;;;;6.30;1.80;;;8.00;99.90;;;;;;5074620;28;20170;-78
2023/12/22 05:32:54;;;;;;;8.70;2.07;;;8.00;99.90;;;;;;5074362;28;20679;-77
2023/12/22 05:35:20;;;;;;;6.33;1.67;;;8.10;99.90;;;;;;5074674;28;20208;-77
2023/12/22 05:37:47;;;;;;;9.43;2.00;;;8.20;99.90;;;;;;5072943;28;21025;-78
2023/12/22 05:40:13;;;;;;;8.07;1.90;;;8.20;99.90;;;;;;5073792;28;20484;-77
2023/12/22 05:42:39;;;;;;;11.20;2.30;;;8.20;99.90;;;;;;5074060;28;20456;-76
2023/12/22 05:45:06;;;;;;;8.20;1.80;;;8.20;99.90;;;;;;5075077;28;20174;-76
2023/12/22 05:47:32;;;;;;;8.07;2.30;;;8.30;99.90;;;;;;5073484;28;20178;-77
2023/12/22 05:49:57;;;;;;;5.90;2.20;;;8.30;99.90;;;;;;5073859;28;20428;-78
2023/12/22 05:52:23;;;;;;;10.63;2.30;;;8.30;99.90;;;;;;5075153;28;20194;-77
2023/12/22 05:54:49;;;;;;;13.63;2.70;;;8.40;99.90;;;;;;5076133;28;20240;-76
2023/12/22 05:57:14;;;;;;;7.87;3.50;;;8.40;99.90;;;;;;5074417;28;20197;-77
2023/12/22 05:59:40;;;;;;;11.37;5.00;;;8.40;99.90;;;;;;5073811;28;20190;-77
2023/12/22 06:02:05;;;;;;;12.93;2.03;;;8.50;99.90;;;;;;5074528;28;20225;-77
2023/12/22 06:04:31;;;;;;;5.27;1.90;;;8.50;99.90;;;;;;5073804;28;20174;-76
2023/12/22 06:06:56;;;;;;;11.13;2.30;;;8.50;99.90;;;;;;5075072;28;20193;-77
2023/12/22 06:09:22;;;;;;;6.50;1.90;;;8.40;99.90;;;;;;5074725;28;20252;-77
2023/12/22 06:11:48;;;;;;;2.17;1.50;;;8.50;99.90;;;;;;5074337;28;20220;-78
2023/12/22 06:14:14;;;;;;;3.10;1.70;;;8.50;99.90;;;;;;5074217;28;20193;-78
2023/12/22 06:16:40;;;;;;;8.10;2.37;;;8.50;99.90;;;;;;5073936;28;20420;-78
2023/12/22 06:19:06;;;;;;;8.27;1.70;;;8.50;99.90;;;;;;5075313;28;20400;-76
2023/12/22 06:21:31;;;;;;;18.40;2.43;;;8.60;99.90;;;;;;5077915;28;20194;-76
2023/12/22 06:23:57;;;;;;;8.00;1.37;;;8.60;99.90;;;;;;5079022;28;20645;-78
2023/12/22 06:26:23;;;;;;;4.30;1.80;;;8.70;99.90;;;;;;5079302;28;20166;-78
2023/12/22 06:28:48;;;;;;;8.10;1.70;;;8.60;99.90;;;;;;5079349;28;20167;-78
2023/12/22 06:31:21;;;;;;;6.33;2.10;;;8.60;99.90;;;;;;5077554;28;20439;-77
2023/12/22 06:33:51;;;;;;;12.43;2.70;;;8.60;99.90;;;;;;5078774;28;20276;-78
2023/12/22 06:36:21;;;;;;;7.60;2.20;;;8.50;99.90;;;;;;5079148;28;20427;-78
2023/12/22 06:38:54;;;;;;;8.90;1.93;;;8.60;99.90;;;;;;5077495;28;20408;-78
2023/12/22 06:41:21;;;;;;;5.07;2.33;;;8.60;99.90;;;;;;5078202;28;20420;-77
2023/12/22 06:43:46;;;;;;;4.50;1.63;;;8.60;99.90;;;;;;5078061;28;20473;-78
2023/12/22 06:46:19;;;;;;;1.83;0.73;;;8.60;99.90;;;;;;5078432;28;20895;-77
2023/12/22 06:48:45;;;;;;;2.20;1.00;;;8.50;99.90;;;;;;5078416;28;20189;-77
2023/12/22 06:51:20;;;;;;;6.73;1.30;;;8.40;99.90;;;;;;5076463;28;20495;-78
2023/12/22 06:53:50;;;;;;;4.70;1.10;;;8.30;99.90;;;;;;5076829;28;20461;-77
2023/12/22 06:56:20;;;;;;;6.13;1.60;;;8.20;99.90;;;;;;5078164;28;20397;-76
2023/12/22 06:58:48;;;;;;;6.43;1.30;;;8.20;99.90;;;;;;5077146;28;20442;-76
2023/12/22 07:01:35;;;;;;;5.83;1.50;;;8.20;99.90;;;;;;5076641;28;20505;-78
2023/12/22 07:04:02;;;;;;;9.70;1.80;;;8.20;99.90;;;;;;5076526;28;20987;-77
2023/12/22 07:06:32;;;;;;;2.10;1.03;;;8.10;99.90;;;;;;5076799;28;20558;-78
2023/12/22 07:09:19;;;;;;;6.00;1.70;;;8.10;99.90;;;;;;5077407;28;20407;-78
2023/12/22 07:11:51;;;;;;;5.13;2.53;;;8.10;99.90;;;;;;5075697;28;20428;-78
2023/12/22 07:14:17;;;;;;;14.60;2.80;;;8.00;99.90;;;;;;5077070;28;20452;-77
2023/12/22 07:16:42;;;;;;;13.17;2.53;;;8.00;99.90;;;;;;5077225;28;20849;-77
2023/12/22 07:19:08;;;;;;;4.80;1.90;;;8.00;99.90;;;;;;5077335;28;20509;-78
2023/12/22 07:21:34;;;;;;;9.33;1.83;;;8.00;99.90;;;;;;5077190;28;20190;-78
2023/12/22 07:24:00;;;;;;;5.83;1.53;;;8.00;99.90;;;;;;5078391;28;20846;-78
2023/12/22 07:26:29;;;;;;;10.63;2.10;;;8.10;99.90;;;;;;5078155;28;20442;-78
2023/12/22 07:28:54;;;;;;;7.43;2.03;;;8.10;99.90;;;;;;5078247;28;20405;-76
2023/12/22 07:31:20;;;;;;;5.03;2.30;;;8.00;99.90;;;;;;5077423;28;20481;-78
2023/12/22 07:33:45;;;;;;;12.27;2.53;;;8.10;99.90;;;;;;5075899;28;20194;-74
2023/12/22 07:36:11;;;;;;;7.13;2.70;;;8.10;99.90;;;;;;5074147;28;20409;-72
2023/12/22 07:38:39;;;;;;;9.17;3.13;;;8.20;99.90;;;;;;5073940;28;20245;-72
2023/12/22 07:41:05;;;;;;;3.77;1.90;;;8.40;99.90;;;;;;5073828;28;20162;-71
2023/12/22 07:43:30;;;;;;;6.63;2.30;;;8.60;99.90;;;;;;5073898;28;20525;-72
2023/12/22 07:45:56;;;;;;;10.07;2.67;;;8.80;99.90;;;;;;5073925;28;20651;-72
2023/12/22 07:48:21;;;;;;;10.17;2.40;;;8.90;99.90;;;;;;5073907;28;20735;-72
2023/12/22 07:50:47;;;;;;;12.33;3.40;;;9.00;99.90;;;;;;5073764;28;20162;-71
2023/12/22 07:53:12;;;;;;;16.93;3.33;;;9.10;99.90;;;;;;5073538;28;20319;-72
2023/12/22 07:55:38;;;;;;;21.43;4.20;;;9.20;99.90;;;;;;5073763;28;20187;-72
2023/12/22 07:58:05;;;;;;;10.43;2.87;;;9.20;99.90;;;;;;5073507;28;20163;-72
2023/12/22 08:00:30;;;;;;;16.30;4.03;;;9.30;99.90;;;;;;5073554;28;20167;-72
2023/12/22 08:02:56;;;;;;;12.50;2.93;;;9.30;99.90;;;;;;5073545;28;20953;-72
2023/12/22 08:05:21;;;;;;;5.93;2.70;;;9.20;99.90;;;;;;5073582;28;20167;-72
2023/12/22 08:07:47;;;;;;;14.53;3.90;;;9.10;99.90;;;;;;5073582;28;20170;-71
2023/12/22 08:10:12;;;;;;;11.53;4.13;;;9.10;99.90;;;;;;5073323;28;20217;-72
2023/12/22 08:12:38;;;;;;;14.13;2.63;;;9.10;99.90;;;;;;5073471;28;20182;-72
2023/12/22 08:15:04;;;;;;;26.20;4.60;;;9.00;99.90;;;;;;5073412;28;20205;-71
2023/12/22 08:17:29;;;;;;;16.10;4.03;;;8.90;99.90;;;;;;5073450;28;20205;-71
2023/12/22 08:19:56;;;;;;;18.63;3.60;;;8.80;99.90;;;;;;5073371;28;20503;-71
2023/12/22 08:22:22;;;;;;;9.07;3.43;;;8.80;99.90;;;;;;5073189;28;20196;-71
2023/12/22 08:24:48;;;;;;;13.17;3.43;;;8.90;99.90;;;;;;5073313;28;20487;-71
2023/12/22 08:27:14;;;;;;;18.13;3.07;;;8.90;99.90;;;;;;5073262;28;20249;-72
2023/12/22 08:29:39;;;;;;;9.60;4.90;;;8.90;99.90;;;;;;5073205;28;20412;-71
2023/12/22 08:32:05;;;;;;;12.23;4.10;;;8.90;99.90;;;;;;5072830;28;20186;-72
2023/12/22 08:34:30;;;;;;;14.53;4.23;;;9.00;99.90;;;;;;5072983;28;20272;-73
2023/12/22 08:36:56;;;;;;;20.80;4.00;;;9.00;99.90;;;;;;5073050;28;20162;-71
2023/12/22 08:39:24;;;;;;;13.80;2.80;;;8.90;99.90;;;;;;5072916;28;20162;-71
2023/12/22 08:41:49;;;;;;;14.60;3.10;;;8.90;99.90;;;;;;5072635;28;20186;-72
2023/12/22 08:44:15;;;;;;;10.03;3.20;;;8.90;99.90;;;;;;5071908;28;20405;-72
2023/12/22 08:46:41;;;;;;;19.03;3.73;;;8.90;99.90;;;;;;5072596;28;20170;-72
2023/12/22 08:49:07;;;;;;;14.60;3.80;;;9.00;99.90;;;;;;5072695;28;20540;-71
2023/12/22 08:51:33;;;;;;;11.60;3.30;;;9.00;99.90;;;;;;5072468;28;20186;-71
2023/12/22 08:53:59;;;;;;;19.83;4.23;;;9.00;99.90;;;;;;5072445;28;20544;-71
2023/12/22 08:56:26;;;;;;;14.73;3.60;;;9.10;99.90;;;;;;5072629;28;20475;-71
2023/12/22 08:58:54;;;;;;;12.23;3.60;;;9.10;99.90;;;;;;5072664;28;20193;-72
2023/12/22 09:01:20;;;;;;;11.17;4.00;;;9.20;99.90;;;;;;5070908;28;20432;-72
2023/12/22 09:03:46;;;;;;;16.50;4.10;;;9.10;99.90;;;;;;5072375;28;20404;-72
2023/12/22 09:06:15;;;;;;;13.80;3.40;;;9.30;99.90;;;;;;5072429;28;20432;-71
2023/12/22 09:08:41;;;;;;;11.83;2.73;;;9.30;99.90;;;;;;5072441;28;20415;-72
2023/12/22 09:11:07;;;;;;;9.70;3.30;;;9.30;99.90;;;;;;5072050;28;20413;-71
2023/12/22 09:13:35;;;;;;;9.27;2.57;;;9.20;99.90;;;;;;5072225;28;20492;-71
2023/12/22 09:16:02;;;;;;;13.80;2.80;;;9.20;99.90;;;;;;5072295;28;20165;-72
2023/12/22 09:18:28;;;;;;;10.70;3.87;;;9.40;99.90;;;;;;5072148;28;20473;-72
2023/12/22 09:20:53;;;;;;;6.87;2.50;;;9.30;99.90;;;;;;5071998;28;20405;-72
2023/12/22 09:23:19;;;;;;;13.07;3.53;;;9.40;99.90;;;;;;5071830;28;20166;-71
2023/12/22 09:25:45;;;;;;;5.70;2.70;;;9.40;99.90;;;;;;5072088;28;20632;-71
2023/12/22 09:28:11;;;;;;;10.53;3.33;;;9.50;99.90;;;;;;5072117;28;20485;-71
2023/12/22 09:30:36;;;;;;;14.53;3.17;;;9.50;99.90;;;;;;5072046;28;20271;-72
2023/12/22 09:33:02;;;;;;;5.23;2.70;;;9.60;99.90;;;;;;5071931;28;20197;-71
2023/12/22 09:35:27;;;;;;;13.03;3.30;;;9.70;99.90;;;;;;5071974;28;20205;-71
2023/12/22 09:37:53;;;;;;;8.93;2.27;;;9.70;99.90;;;;;;5072042;28;20166;-71
2023/12/22 09:40:19;;;;;;;6.17;3.30;;;9.80;99.90;;;;;;5071770;28;20162;-71
2023/12/22 09:42:46;;;;;;;7.33;2.23;;;9.90;99.90;;;;;;5071606;28;20423;-72
2023/12/22 09:45:14;;;;;;;6.50;3.00;;;9.90;99.90;;;;;;5071891;28;20930;-72
2023/12/22 09:47:43;;;;;;;16.93;3.30;;;9.80;99.90;;;;;;5071806;28;20444;-71
2023/12/22 09:50:10;;;;;;;12.53;3.13;;;10.00;99.90;;;;;;5071694;28;20404;-71
2023/12/22 09:52:36;;;;;;;4.73;2.20;;;9.90;99.90;;;;;;5071586;28;20444;-71
2023/12/22 09:55:03;;;;;;;2.30;1.70;;;10.00;99.90;;;;;;5071361;28;20444;-73
2023/12/22 09:57:30;;;;;;;7.97;3.53;;;10.00;99.90;;;;;;5071859;28;20435;-72
2023/12/22 09:59:58;;;;;;;4.67;1.83;;;10.10;99.90;;;;;;5071675;28;20487;-70
2023/12/22 10:02:26;;;;;;;4.90;2.17;;;10.10;99.90;;;;;;5071564;28;20800;-71
2023/12/22 10:04:52;;;;;;;6.10;2.60;;;10.10;99.90;;;;;;5071618;28;20900;-71
2023/12/22 10:07:18;;;;;;;5.53;2.90;;;10.10;99.90;;;;;;5071652;28;20488;-71
2023/12/22 10:09:47;;;;;;;5.23;1.77;;;10.20;99.90;;;;;;5070423;28;20409;-72
2023/12/22 10:12:14;;;;;;;2.60;1.70;;;10.20;99.90;;;;;;5071469;28;20919;-72
2023/12/22 10:14:41;;;;;;;1.83;1.20;;;10.20;99.90;;;;;;5071558;28;20448;-70
2023/12/22 10:17:07;;;;;;;4.40;1.70;;;10.30;99.90;;;;;;5071636;28;20749;-71
2023/12/22 10:19:32;;;;;;;3.93;1.30;;;10.30;99.90;;;;;;5071583;28;20411;-72
2023/12/22 10:21:57;;;;;;;4.77;1.53;;;10.20;99.90;;;;;;5071196;28;20182;-71
2023/12/22 10:24:42;;;;;;;2.00;1.00;;;10.10;99.90;;;;;;5071505;28;20179;-72
2023/12/22 10:27:08;;;;;;;5.60;1.40;;;10.10;99.90;;;;;;5071498;28;20189;-70
2023/12/22 10:29:34;;;;;;;3.37;1.37;;;10.10;99.90;;;;;;5071510;28;20910;-71
2023/12/22 10:32:04;;;;;;;1.70;1.23;;;10.20;99.90;;;;;;5071127;28;20432;-71
2023/12/22 10:34:30;;;;;;;3.47;1.37;;;10.10;99.90;;;;;;5071289;28;20440;-72
2023/12/22 10:36:59;;;;;;;2.10;1.00;;;10.10;99.90;;;;;;5071498;28;20485;-71
2023/12/22 10:39:30;;;;;;;2.40;1.80;;;10.10;99.90;;;;;;5071337;28;20397;-71
2023/12/22 10:41:59;;;;;;;2.03;1.20;;;10.00;99.90;;;;;;5071011;28;20416;-71
2023/12/22 10:44:26;;;;;;;2.37;1.40;;;10.00;99.90;;;;;;5071044;28;20396;-71
2023/12/22 10:46:52;;;;;;;4.57;1.60;;;10.00;99.90;;;;;;5071334;28;20805;-72
2023/12/22 10:49:19;;;;;;;2.73;1.53;;;9.90;99.90;;;;;;5071048;28;20415;-70
2023/12/22 10:51:44;;;;;;;2.40;1.40;;;9.80;99.90;;;;;;5071049;28;20424;-71
2023/12/22 10:54:10;;;;;;;1.50;1.40;;;9.90;99.90;;;;;;5071004;28;20458;-71
2023/12/22 10:56:36;;;;;;;2.07;1.30;;;9.90;99.90;;;;;;5071251;28;20173;-71
2023/12/22 10:59:06;;;;;;;1.10;1.00;;;9.90;99.90;;;;;;5071278;28;20682;-72
2023/12/22 11:01:34;;;;;;;4.50;1.33;;;9.90;99.90;;;;;;5071034;28;20931;-72
2023/12/22 11:04:05;;;;;;;2.53;1.40;;;9.90;99.90;;;;;;5071035;28;20436;-71
2023/12/22 11:06:35;;;;;;;2.00;1.30;;;10.10;99.90;;;;;;5071869;28;20503;-71
2023/12/22 11:09:06;;;;;;;2.63;1.57;;;10.20;99.90;;;;;;5074848;28;20843;-71
2023/12/22 11:11:39;;;;;;;4.00;1.50;;;10.30;99.90;;;;;;5074343;28;20497;-71
2023/12/22 11:14:06;;;;;;;2.90;1.60;;;10.30;99.90;;;;;;5074275;28;20452;-70
2023/12/22 11:16:33;;;;;;;2.50;1.53;;;10.40;99.90;;;;;;5074491;28;20400;-71
2023/12/22 11:19:00;;;;;;;1.70;1.60;;;10.50;99.90;;;;;;5074513;28;20487;-72
2023/12/22 11:21:26;;;;;;;2.13;1.67;;;10.50;99.90;;;;;;5074184;28;20420;-71
2023/12/22 11:23:53;;;;;;;3.13;1.90;;;10.60;99.90;;;;;;5074306;28;20757;-71
2023/12/22 11:26:19;;;;;;;6.00;1.80;;;10.70;99.90;;;;;;5074361;28;20433;-70
2023/12/22 11:28:46;;;;;;;2.50;1.83;;;10.70;99.90;;;;;;5074222;28;20487;-71
2023/12/22 11:31:13;;;;;;;1.70;1.60;;;10.70;99.90;;;;;;5073971;28;20404;-72
2023/12/22 11:33:44;;;;;;;4.23;1.83;;;10.70;99.90;;;;;;5072658;28;20447;-71
2023/12/22 11:36:12;;;;;;;5.43;1.80;;;10.80;99.90;;;;;;5074221;28;20392;-72
2023/12/22 11:38:42;;;;;;;1.97;1.87;;;10.80;99.90;;;;;;5074116;28;20910;-72
2023/12/22 11:41:15;;;;;;;7.03;1.83;;;10.80;99.90;;;;;;5073768;28;21002;-71
2023/12/22 11:43:41;;;;;;;3.93;1.70;;;10.80;99.90;;;;;;5074039;28;20986;-72
2023/12/22 11:46:08;;;;;;;2.57;1.77;;;10.80;99.90;;;;;;5073974;28;20757;-72
2023/12/22 11:48:34;;;;;;;2.60;1.30;;;10.90;99.90;;;;;;5073960;28;20508;-72
2023/12/22 11:51:01;;;;;;;4.50;1.30;;;10.90;99.90;;;;;;5073660;28;20488;-71
2023/12/22 11:53:32;;;;;;;2.10;1.20;;;10.90;99.90;;;;;;5073570;28;20424;-72
2023/12/22 11:56:07;;;;;;;1.73;1.60;;;11.00;99.90;;;;;;5074022;28;20420;-70
2023/12/22 11:58:58;;;;;;;2.07;1.77;;;11.10;99.90;;;;;;5073616;28;20408;-73
2023/12/22 12:01:25;;;;;;;1.47;1.33;;;11.20;99.90;;;;;;5073384;28;20421;-70
2023/12/22 12:03:55;;;;;;;1.53;1.30;;;11.10;99.90;;;;;;5073740;28;20408;-72
2023/12/22 12:06:26;;;;;;;1.50;1.40;;;11.20;99.90;;;;;;5073418;28;20425;-70
2023/12/22 12:08:53;;;;;;;1.60;1.10;;;11.30;99.90;;;;;;5073529;28;20397;-70
2023/12/22 12:11:19;;;;;;;4.80;1.10;;;11.40;99.90;;;;;;5073309;28;20427;-70
2023/12/22 12:13:46;;;;;;;2.03;1.50;;;11.40;99.90;;;;;;5073282;28;20412;-71
2023/12/22 12:16:12;;;;;;;1.53;1.10;;;11.40;99.90;;;;;;5072365;28;20505;-70
2023/12/22 12:18:39;;;;;;;3.00;1.13;;;11.40;99.90;;;;;;5073249;28;20408;-71
2023/12/22 12:21:10;;;;;;;1.67;1.40;;;11.40;99.90;;;;;;5073034;28;20475;-70
2023/12/22 12:23:36;;;;;;;1.07;0.90;;;11.50;99.90;;;;;;5073314;28;20392;-71
2023/12/22 12:26:02;;;;;;;2.67;1.40;;;11.60;99.90;;;;;;5073294;28;20419;-70
2023/12/22 12:28:32;;;;;;;2.27;1.40;;;11.60;99.90;;;;;;5073239;28;20190;-70
2023/12/22 12:31:08;;;;;;;3.50;1.00;;;11.70;99.90;;;;;;5072983;28;20412;-71
2023/12/22 12:33:35;;;;;;;2.10;2.00;;;11.70;99.90;;;;;;5072840;28;20803;-70
2023/12/22 12:36:04;;;;;;;2.93;1.53;;;11.70;99.90;;;;;;5072763;28;20919;-71
2023/12/22 12:38:42;;;;;;;3.07;1.37;;;11.70;99.90;;;;;;5072949;28;20483;-72
2023/12/22 12:41:10;;;;;;;1.90;1.37;;;11.70;99.90;;;;;;5072678;28;20492;-70
2023/12/22 12:43:40;;;;;;;1.70;1.20;;;11.80;99.90;;;;;;5072773;28;20407;-72
2023/12/22 12:46:06;;;;;;;1.20;1.10;;;11.90;99.90;;;;;;5073121;28;20810;-71
2023/12/22 12:48:32;;;;;;;2.13;1.60;;;11.90;99.90;;;;;;5072875;28;20396;-73
2023/12/22 12:51:07;;;;;;;11.53;1.70;;;12.00;99.90;;;;;;5072926;28;20166;-73